Wetterdaten: Woche 08.06.15 - 14.06.15 (KW24)
Datum Zeit Temp. Aussen +5cm Feuchte Auss BlattFeu 1 Luftdruck Regen Sonnenschein Regendauer Solar Windben
08.06.2015 00:00 12,8 C 11,3 C 71 % 0 lf 1029,5 hPa 0,0 l/m 0,00 h 0,00 h 0 W/m 17,1 km/h (3 Bft)
08.06.2015 01:00 11,7 C 10,3 C 75 % 0 lf 1029,7 hPa 0,0 l/m 0,00 h 0,00 h 0 W/m 14,5 km/h (3 Bft)
08.06.2015 02:00 10,8 C 9,4 C 78 % 0 lf 1029,7 hPa 0,0 l/m 0,00 h 0,00 h 0 W/m 12,8 km/h (3 Bft)
08.06.2015 03:00 10,0 C 8,8 C 82 % 0 lf 1029,5 hPa 0,0 l/m 0,00 h 0,00 h 0 W/m 12,1 km/h (2 Bft)
08.06.2015 04:00 9,4 C 8,2 C 84 % 0 lf 1029,4 hPa 0,0 l/m 0,00 h 0,00 h 0 W/m 11,1 km/h (2 Bft)
08.06.2015 05:00 8,9 C 7,8 C 86 % 0 lf 1029,4 hPa 0,0 l/m 0,17 h 0,00 h 15 W/m 10,6 km/h (2 Bft)
08.06.2015 06:00 8,9 C 8,1 C 87 % 0 lf 1029,4 hPa 0,0 l/m 0,97 h 0,00 h 104 W/m 14,3 km/h (3 Bft)
08.06.2015 07:00 10,0 C 9,4 C 86 % 0 lf 1029,6 hPa 0,0 l/m 1,00 h 0,00 h 262 W/m 21,5 km/h (4 Bft)
08.06.2015 08:00 11,6 C 11,0 C 80 % 0 lf 1029,5 hPa 0,0 l/m 1,00 h 0,00 h 447 W/m 22,9 km/h (4 Bft)
08.06.2015 09:00 13,5 C 12,8 C 71 % 0 lf 1029,4 hPa 0,0 l/m 1,00 h 0,00 h 624 W/m 24,9 km/h (4 Bft)
08.06.2015 10:00 14,6 C 16,0 C 68 % 0 lf 1029,2 hPa 0,0 l/m 0,73 h 0,00 h 614 W/m 26,7 km/h (4 Bft)
08.06.2015 11:00 15,7 C 18,2 C 62 % 0 lf 1029,3 hPa 0,0 l/m 0,93 h 0,00 h 848 W/m 28,0 km/h (4 Bft)
08.06.2015 12:00 16,7 C 18,4 C 59 % 0 lf 1029,1 hPa 0,0 l/m 0,68 h 0,00 h 690 W/m 30,6 km/h (5 Bft)
08.06.2015 13:00 17,8 C 18,1 C 55 % 0 lf 1028,8 hPa 0,0 l/m 0,93 h 0,00 h 847 W/m 28,2 km/h (4 Bft)
08.06.2015 14:00 18,5 C 18,4 C 51 % 0 lf 1028,3 hPa 0,0 l/m 0,73 h 0,00 h 788 W/m 27,8 km/h (4 Bft)
08.06.2015 15:00 19,0 C 19,0 C 50 % 0 lf 1027,8 hPa 0,0 l/m 0,90 h 0,00 h 765 W/m 29,4 km/h (5 Bft)
08.06.2015 16:00 19,0 C 21,7 C 49 % 0 lf 1027,2 hPa 0,0 l/m 0,87 h 0,00 h 685 W/m 30,4 km/h (5 Bft)
08.06.2015 17:00 18,3 C 18,2 C 50 % 0 lf 1026,9 hPa 0,0 l/m 0,87 h 0,00 h 475 W/m 29,6 km/h (5 Bft)
08.06.2015 18:00 18,2 C 17,6 C 50 % 0 lf 1026,6 hPa 0,0 l/m 0,90 h 0,00 h 344 W/m 30,3 km/h (5 Bft)
08.06.2015 19:00 17,7 C 16,2 C 52 % 0 lf 1026,6 hPa 0,0 l/m 0,67 h 0,00 h 190 W/m 28,0 km/h (4 Bft)
08.06.2015 20:00 16,8 C 15,6 C 55 % 0 lf 1026,8 hPa 0,0 l/m 0,90 h 0,00 h 119 W/m 28,0 km/h (4 Bft)
08.06.2015 21:00 15,6 C 14,0 C 59 % 0 lf 1027,1 hPa 0,0 l/m 0,13 h 0,00 h 17 W/m 27,3 km/h (4 Bft)
08.06.2015 22:00 14,0 C 12,5 C 63 % 0 lf 1027,8 hPa 0,0 l/m 0,00 h 0,00 h 0 W/m 26,4 km/h (4 Bft)
08.06.2015 23:00 12,6 C 11,3 C 68 % 0 lf 1028,4 hPa 0,0 l/m 0,00 h 0,00 h 0 W/m 26,3 km/h (4 Bft)
09.06.2015 00:00 11,5 C 10,3 C 72 % 0 lf 1028,5 hPa 0,0 l/m 0,00 h 0,00 h 0 W/m 20,3 km/h (4 Bft)
09.06.2015 01:00 10,6 C 9,5 C 74 % 0 lf 1028,6 hPa 0,0 l/m 0,00 h 0,00 h 0 W/m 15,1 km/h (3 Bft)
09.06.2015 02:00 9,7 C 8,6 C 78 % 0 lf 1028,6 hPa 0,0 l/m 0,00 h 0,00 h 0 W/m 15,3 km/h (3 Bft)
09.06.2015 03:00 9,1 C 7,9 C 81 % 0 lf 1028,5 hPa 0,0 l/m 0,00 h 0,00 h 0 W/m 14,8 km/h (3 Bft)
09.06.2015 04:00 8,8 C 7,7 C 83 % 0 lf 1028,4 hPa 0,0 l/m 0,00 h 0,00 h 0 W/m 19,4 km/h (3 Bft)
09.06.2015 05:00 8,1 C 7,2 C 87 % 0 lf 1028,5 hPa 0,0 l/m 0,33 h 0,00 h 17 W/m 13,1 km/h (3 Bft)
09.06.2015 06:00 8,2 C 7,3 C 87 % 0 lf 1028,7 hPa 0,0 l/m 0,17 h 0,00 h 64 W/m 15,6 km/h (3 Bft)
09.06.2015 07:00 9,3 C 8,8 C 84 % 0 lf 1028,7 hPa 0,0 l/m 1,00 h 0,00 h 233 W/m 21,9 km/h (4 Bft)
09.06.2015 08:00 11,3 C 10,7 C 76 % 0 lf 1029,0 hPa 0,0 l/m 1,00 h 0,00 h 407 W/m 26,5 km/h (4 Bft)
09.06.2015 09:00 12,3 C 12,2 C 71 % 0 lf 1029,3 hPa 0,0 l/m 0,83 h 0,00 h 509 W/m 25,4 km/h (4 Bft)
09.06.2015 10:00 13,1 C 14,1 C 69 % 0 lf 1029,3 hPa 0,0 l/m 0,57 h 0,00 h 432 W/m 28,0 km/h (4 Bft)
09.06.2015 11:00 13,9 C 14,7 C 65 % 0 lf 1029,2 hPa 0,0 l/m 0,23 h 0,00 h 395 W/m 24,5 km/h (4 Bft)
09.06.2015 12:00 15,0 C 16,7 C 61 % 0 lf 1028,8 hPa 0,0 l/m 0,60 h 0,00 h 665 W/m 27,7 km/h (4 Bft)
09.06.2015 13:00 15,9 C 16,7 C 58 % 0 lf 1028,4 hPa 0,0 l/m 0,53 h 0,00 h 610 W/m 24,2 km/h (4 Bft)
09.06.2015 14:00 16,8 C 16,9 C 54 % 0 lf 1027,8 hPa 0,0 l/m 0,60 h 0,00 h 691 W/m 27,1 km/h (4 Bft)
09.06.2015 15:00 16,9 C 17,2 C 53 % 0 lf 1027,8 hPa 0,0 l/m 0,67 h 0,00 h 656 W/m 25,2 km/h (4 Bft)
09.06.2015 16:00 17,5 C 20,0 C 52 % 0 lf 1027,6 hPa 0,0 l/m 0,83 h 0,00 h 688 W/m 27,4 km/h (4 Bft)
09.06.2015 17:00 17,4 C 17,4 C 51 % 0 lf 1027,3 hPa 0,0 l/m 0,70 h 0,00 h 472 W/m 27,1 km/h (4 Bft)
09.06.2015 18:00 16,8 C 15,8 C 53 % 0 lf 1027,1 hPa 0,0 l/m 0,73 h 0,00 h 371 W/m 24,4 km/h (4 Bft)
09.06.2015 19:00 16,5 C 15,3 C 54 % 0 lf 1027,1 hPa 0,0 l/m 0,77 h 0,00 h 219 W/m 23,7 km/h (4 Bft)
09.06.2015 20:00 15,8 C 14,3 C 54 % 0 lf 1027,0 hPa 0,0 l/m 0,70 h 0,00 h 93 W/m 19,6 km/h (3 Bft)
09.06.2015 21:00 15,0 C 13,1 C 55 % 0 lf 1027,0 hPa 0,0 l/m 0,10 h 0,00 h 18 W/m 15,8 km/h (3 Bft)
09.06.2015 22:00 13,8 C 11,9 C 62 % 0 lf 1027,2 hPa 0,0 l/m 0,00 h 0,00 h 4 W/m 9,5 km/h (2 Bft)
09.06.2015 23:00 12,5 C 10,7 C 70 % 0 lf 1027,5 hPa 0,0 l/m 0,00 h 0,00 h 0 W/m 7,8 km/h (2 Bft)
10.06.2015 00:00 11,5 C 9,5 C 75 % 0 lf 1027,6 hPa 0,0 l/m 0,00 h 0,00 h 0 W/m 7,6 km/h (2 Bft)
10.06.2015 01:00 10,7 C 8,9 C 79 % 0 lf 1027,4 hPa 0,0 l/m 0,00 h 0,00 h 0 W/m 7,1 km/h (2 Bft)
10.06.2015 02:00 10,2 C 8,8 C 83 % 0 lf 1027,4 hPa 0,0 l/m 0,00 h 0,00 h 0 W/m 6,9 km/h (2 Bft)
10.06.2015 03:00 10,1 C 8,9 C 86 % 0 lf 1027,2 hPa 0,0 l/m 0,00 h 0,00 h 0 W/m 11,1 km/h (2 Bft)
10.06.2015 04:00 9,9 C 8,9 C 89 % 1 lf 1026,9 hPa 0,0 l/m 0,00 h 0,00 h 0 W/m 9,9 km/h (2 Bft)
10.06.2015 05:00 9,9 C 8,9 C 90 % 1 lf 1026,6 hPa 0,0 l/m 0,00 h 0,00 h 11 W/m 8,3 km/h (2 Bft)
10.06.2015 06:00 10,2 C 9,6 C 92 % 1 lf 1026,4 hPa 0,0 l/m 0,13 h 0,00 h 61 W/m 10,3 km/h (2 Bft)
10.06.2015 07:00 11,0 C 10,8 C 92 % 0 lf 1026,3 hPa 0,0 l/m 0,53 h 0,00 h 157 W/m 11,9 km/h (2 Bft)
10.06.2015 08:00 13,4 C 13,3 C 84 % 0 lf 1026,3 hPa 0,0 l/m 1,00 h 0,00 h 334 W/m 15,9 km/h (3 Bft)
10.06.2015 09:00 16,6 C 15,9 C 68 % 0 lf 1026,2 hPa 0,0 l/m 0,93 h 0,00 h 582 W/m 22,5 km/h (4 Bft)
10.06.2015 10:00 19,7 C 22,0 C 55 % 0 lf 1025,9 hPa 0,0 l/m 1,00 h 0,00 h 720 W/m 30,4 km/h (5 Bft)
10.06.2015 11:00 21,2 C 24,1 C 51 % 0 lf 1025,7 hPa 0,0 l/m 0,93 h 0,00 h 786 W/m 31,0 km/h (5 Bft)
10.06.2015 12:00 22,3 C 24,5 C 47 % 0 lf 1025,5 hPa 0,0 l/m 0,77 h 0,00 h 740 W/m 30,1 km/h (5 Bft)
10.06.2015 13:00 23,2 C 23,5 C 45 % 0 lf 1024,9 hPa 0,0 l/m 0,90 h 0,00 h 906 W/m 26,9 km/h (4 Bft)
10.06.2015 14:00 24,3 C 23,1 C 42 % 0 lf 1024,5 hPa 0,0 l/m 0,80 h 0,00 h 744 W/m 24,2 km/h (4 Bft)
10.06.2015 15:00 23,8 C 21,6 C 44 % 0 lf 1024,0 hPa 0,0 l/m 0,80 h 0,00 h 760 W/m 24,0 km/h (4 Bft)
10.06.2015 16:00 24,5 C 17,7 C 43 % 0 lf 1023,4 hPa 0,0 l/m 0,93 h 0,00 h 710 W/m 25,9 km/h (4 Bft)
10.06.2015 17:00 24,1 C 18,8 C 44 % 0 lf 1022,9 hPa 0,0 l/m 0,97 h 0,00 h 569 W/m 21,2 km/h (4 Bft)
10.06.2015 18:00 23,3 C 20,7 C 46 % 0 lf 1022,5 hPa 0,0 l/m 0,60 h 0,00 h 340 W/m 20,6 km/h (4 Bft)
10.06.2015 19:00 22,4 C 18,9 C 50 % 0 lf 1022,2 hPa 0,0 l/m 0,60 h 0,00 h 201 W/m 22,2 km/h (4 Bft)
10.06.2015 20:00 21,3 C 18,3 C 53 % 0 lf 1022,2 hPa 0,0 l/m 0,40 h 0,00 h 86 W/m 20,4 km/h (4 Bft)
10.06.2015 21:00 19,9 C 16,8 C 57 % 0 lf 1022,4 hPa 0,0 l/m 0,10 h 0,00 h 18 W/m 15,3 km/h (3 Bft)
10.06.2015 22:00 18,4 C 15,3 C 61 % 0 lf 1022,8 hPa 0,0 l/m 0,00 h 0,00 h 0 W/m 11,5 km/h (2 Bft)
10.06.2015 23:00 17,3 C 14,5 C 65 % 0 lf 1022,9 hPa 0,0 l/m 0,00 h 0,00 h 0 W/m 10,8 km/h (2 Bft)
11.06.2015 00:00 16,7 C 14,5 C 67 % 0 lf 1022,8 hPa 0,0 l/m 0,00 h 0,00 h 0 W/m 14,6 km/h (3 Bft)
11.06.2015 01:00 16,8 C 15,1 C 68 % 0 lf 1022,7 hPa 0,0 l/m 0,00 h 0,00 h 0 W/m 14,4 km/h (3 Bft)
11.06.2015 02:00 16,5 C 14,6 C 67 % 0 lf 1022,7 hPa 0,0 l/m 0,00 h 0,00 h 0 W/m 11,5 km/h (2 Bft)
11.06.2015 03:00 15,4 C 13,4 C 70 % 0 lf 1022,3 hPa 0,0 l/m 0,00 h 0,00 h 0 W/m 9,0 km/h (2 Bft)
11.06.2015 04:00 14,2 C 12,4 C 74 % 0 lf 1022,0 hPa 0,0 l/m 0,00 h 0,00 h 0 W/m 7,5 km/h (2 Bft)
11.06.2015 05:00 13,3 C 11,6 C 78 % 0 lf 1021,8 hPa 0,0 l/m 0,03 h 0,00 h 15 W/m 5,7 km/h (1 Bft)
11.06.2015 06:00 12,9 C 11,8 C 81 % 0 lf 1021,5 hPa 0,0 l/m 0,27 h 0,00 h 68 W/m 7,2 km/h (2 Bft)
11.06.2015 07:00 13,7 C 13,1 C 81 % 0 lf 1021,2 hPa 0,0 l/m 1,00 h 0,00 h 236 W/m 9,9 km/h (2 Bft)
11.06.2015 08:00 16,1 C 15,3 C 74 % 0 lf 1021,0 hPa 0,0 l/m 1,00 h 0,00 h 420 W/m 16,4 km/h (3 Bft)
11.06.2015 09:00 19,6 C 18,0 C 63 % 0 lf 1020,7 hPa 0,0 l/m 1,00 h 0,00 h 577 W/m 16,3 km/h (3 Bft)
11.06.2015 10:00 22,1 C 24,4 C 57 % 0 lf 1020,4 hPa 0,0 l/m 1,00 h 0,00 h 713 W/m 13,7 km/h (3 Bft)
11.06.2015 11:00 24,1 C 27,2 C 49 % 0 lf 1019,7 hPa 0,0 l/m 1,00 h 0,00 h 825 W/m 19,1 km/h (3 Bft)
11.06.2015 12:00 25,1 C 27,7 C 44 % 0 lf 1019,0 hPa 0,0 l/m 0,93 h 0,00 h 833 W/m 18,7 km/h (3 Bft)
11.06.2015 13:00 26,4 C 26,0 C 42 % 0 lf 1018,3 hPa 0,0 l/m 0,97 h 0,00 h 887 W/m 19,9 km/h (4 Bft)
11.06.2015 14:00 27,5 C 26,0 C 41 % 0 lf 1017,5 hPa 0,0 l/m 1,00 h 0,00 h 960 W/m 17,0 km/h (3 Bft)
11.06.2015 15:00 27,7 C 26,0 C 40 % 0 lf 1016,9 hPa 0,0 l/m 0,80 h 0,00 h 725 W/m 21,3 km/h (4 Bft)
11.06.2015 16:00 27,5 C 28,2 C 41 % 0 lf 1016,2 hPa 0,0 l/m 0,90 h 0,00 h 655 W/m 19,0 km/h (3 Bft)
11.06.2015 17:00 27,6 C 17,5 C 41 % 0 lf 1015,5 hPa 0,0 l/m 0,97 h 0,00 h 559 W/m 22,4 km/h (4 Bft)
11.06.2015 18:00 26,1 C 22,1 C 44 % 0 lf 1014,8 hPa 0,0 l/m 0,93 h 0,00 h 387 W/m 21,3 km/h (4 Bft)
11.06.2015 19:00 25,2 C 22,5 C 47 % 0 lf 1014,5 hPa 0,0 l/m 1,00 h 0,00 h 242 W/m 20,8 km/h (4 Bft)
11.06.2015 20:00 24,1 C 21,4 C 49 % 0 lf 1014,2 hPa 0,0 l/m 0,67 h 0,00 h 90 W/m 18,1 km/h (3 Bft)
11.06.2015 21:00 22,6 C 19,6 C 53 % 0 lf 1014,1 hPa 0,0 l/m 0,00 h 0,00 h 17 W/m 14,2 km/h (3 Bft)
11.06.2015 22:00 21,0 C 17,5 C 56 % 0 lf 1014,4 hPa 0,0 l/m 0,00 h 0,00 h 0 W/m 10,0 km/h (2 Bft)
11.06.2015 23:00 19,4 C 16,4 C 60 % 0 lf 1014,1 hPa 0,0 l/m 0,00 h 0,00 h 0 W/m 11,0 km/h (2 Bft)
12.06.2015 00:00 18,3 C 16,0 C 63 % 0 lf 1014,1 hPa 0,0 l/m 0,00 h 0,00 h 0 W/m 11,5 km/h (2 Bft)
12.06.2015 01:00 17,5 C 15,2 C 68 % 0 lf 1013,8 hPa 0,0 l/m 0,00 h 0,00 h 0 W/m 9,9 km/h (2 Bft)
12.06.2015 02:00 16,7 C 14,3 C 71 % 0 lf 1013,3 hPa 0,0 l/m 0,00 h 0,00 h 0 W/m 8,1 km/h (2 Bft)
12.06.2015 03:00 15,9 C 12,8 C 73 % 0 lf 1013,0 hPa 0,0 l/m 0,00 h 0,00 h 0 W/m 4,7 km/h (1 Bft)
12.06.2015 04:00 14,6 C 11,8 C 76 % 0 lf 1012,6 hPa 0,0 l/m 0,00 h 0,00 h 0 W/m 3,6 km/h (1 Bft)
12.06.2015 05:00 13,4 C 11,0 C 80 % 1 lf 1012,5 hPa 0,0 l/m 0,00 h 0,00 h 14 W/m 1,2 km/h (1 Bft)
12.06.2015 06:00 12,8 C 11,3 C 84 % 0 lf 1012,4 hPa 0,0 l/m 0,93 h 0,00 h 102 W/m 3,3 km/h (1 Bft)
12.06.2015 07:00 14,1 C 13,7 C 85 % 0 lf 1012,4 hPa 0,0 l/m 1,00 h 0,00 h 254 W/m 11,2 km/h (2 Bft)
12.06.2015 08:00 17,0 C 16,2 C 76 % 0 lf 1012,3 hPa 0,0 l/m 0,93 h 0,00 h 418 W/m 13,7 km/h (3 Bft)
12.06.2015 09:00 21,6 C 19,6 C 61 % 0 lf 1012,1 hPa 0,0 l/m 1,00 h 0,00 h 571 W/m 16,6 km/h (3 Bft)
12.06.2015 10:00 24,8 C 26,2 C 52 % 0 lf 1011,5 hPa 0,0 l/m 1,00 h 0,00 h 699 W/m 15,0 km/h (3 Bft)
12.06.2015 11:00 26,6 C 28,9 C 45 % 0 lf 1011,1 hPa 0,0 l/m 1,00 h 0,00 h 791 W/m 19,9 km/h (4 Bft)
12.06.2015 12:00 28,5 C 30,7 C 42 % 0 lf 1010,8 hPa 0,0 l/m 0,93 h 0,00 h 819 W/m 15,5 km/h (3 Bft)
12.06.2015 13:00 30,2 C 29,2 C 40 % 0 lf 1010,2 hPa 0,0 l/m 1,00 h 0,00 h 872 W/m 12,6 km/h (3 Bft)
12.06.2015 14:00 31,1 C 28,6 C 41 % 0 lf 1009,4 hPa 0,0 l/m 1,00 h 0,00 h 838 W/m 14,3 km/h (3 Bft)
12.06.2015 15:00 31,8 C 29,3 C 41 % 0 lf 1008,8 hPa 0,0 l/m 0,93 h 0,00 h 746 W/m 16,5 km/h (3 Bft)
12.06.2015 16:00 31,7 C 30,8 C 44 % 0 lf 1008,5 hPa 0,0 l/m 0,90 h 0,00 h 585 W/m 12,3 km/h (3 Bft)
12.06.2015 17:00 31,9 C 29,6 C 46 % 0 lf 1007,9 hPa 0,0 l/m 0,70 h 0,00 h 588 W/m 15,6 km/h (3 Bft)
12.06.2015 18:00 28,6 C 24,4 C 57 % 4 lf 1007,9 hPa 0,0 l/m 0,00 h 0,27 h 50 W/m 18,5 km/h (3 Bft)
12.06.2015 19:00 24,3 C 20,2 C 72 % 5 lf 1008,1 hPa 0,0 l/m 0,00 h 0,08 h 48 W/m 6,4 km/h (2 Bft)
12.06.2015 20:00 23,2 C 21,1 C 77 % 0 lf 1008,1 hPa 0,0 l/m 0,00 h 0,00 h 15 W/m 9,1 km/h (2 Bft)
12.06.2015 21:00 22,7 C 19,8 C 80 % 0 lf 1008,7 hPa 0,2 l/m 0,00 h 0,23 h 12 W/m 16,2 km/h (3 Bft)
12.06.2015 22:00 21,6 C 19,8 C 84 % 0 lf 1008,7 hPa 0,0 l/m 0,00 h 0,00 h 0 W/m 14,1 km/h (3 Bft)
12.06.2015 23:00 20,9 C 18,8 C 85 % 0 lf 1008,2 hPa 0,0 l/m 0,00 h 0,00 h 0 W/m 12,4 km/h (3 Bft)
13.06.2015 00:00 20,0 C 17,8 C 85 % 1 lf 1007,7 hPa 0,0 l/m 0,00 h 0,00 h 0 W/m 8,3 km/h (2 Bft)
13.06.2015 01:00 19,4 C 16,9 C 87 % 2 lf 1007,4 hPa 0,0 l/m 0,00 h 0,00 h 0 W/m 4,1 km/h (1 Bft)
13.06.2015 02:00 18,8 C 16,7 C 90 % 2 lf 1007,2 hPa 0,0 l/m 0,00 h 0,00 h 0 W/m 6,8 km/h (2 Bft)
13.06.2015 03:00 18,3 C 16,6 C 91 % 2 lf 1007,5 hPa 0,0 l/m 0,00 h 0,00 h 0 W/m 9,0 km/h (2 Bft)
13.06.2015 04:00 17,8 C 15,9 C 92 % 4 lf 1007,6 hPa 0,0 l/m 0,00 h 0,00 h 0 W/m 5,8 km/h (2 Bft)
13.06.2015 05:00 17,2 C 15,7 C 93 % 5 lf 1007,7 hPa 0,0 l/m 0,17 h 0,00 h 17 W/m 6,4 km/h (2 Bft)
13.06.2015 06:00 17,3 C 16,7 C 92 % 0 lf 1007,8 hPa 0,0 l/m 0,53 h 0,00 h 90 W/m 12,1 km/h (2 Bft)
13.06.2015 07:00 18,5 C 17,6 C 86 % 0 lf 1008,4 hPa 0,0 l/m 0,00 h 0,00 h 109 W/m 20,0 km/h (4 Bft)
13.06.2015 08:00 18,3 C 17,2 C 85 % 0 lf 1009,0 hPa 0,0 l/m 0,00 h 0,00 h 110 W/m 21,6 km/h (4 Bft)
13.06.2015 09:00 17,7 C 15,4 C 87 % 12 lf 1009,7 hPa 0,6 l/m 0,00 h 0,73 h 70 W/m 21,5 km/h (4 Bft)
13.06.2015 10:00 16,4 C 14,3 C 91 % 15 lf 1010,0 hPa 0,2 l/m 0,00 h 0,73 h 99 W/m 19,4 km/h (3 Bft)
13.06.2015 11:00 16,3 C 14,8 C 92 % 15 lf 1010,4 hPa 0,4 l/m 0,03 h 1,00 h 252 W/m 15,1 km/h (3 Bft)
13.06.2015 12:00 17,8 C 16,5 C 89 % 2 lf 1010,5 hPa 0,0 l/m 0,67 h 0,07 h 481 W/m 17,3 km/h (3 Bft)
13.06.2015 13:00 20,5 C 20,1 C 76 % 0 lf 1010,4 hPa 0,0 l/m 0,97 h 0,00 h 638 W/m 21,8 km/h (4 Bft)
13.06.2015 14:00 22,8 C 21,9 C 66 % 0 lf 1010,0 hPa 0,0 l/m 0,90 h 0,00 h 787 W/m 29,0 km/h (5 Bft)
13.06.2015 15:00 23,9 C 22,7 C 59 % 0 lf 1009,7 hPa 0,2 l/m 0,90 h 0,00 h 783 W/m 27,8 km/h (4 Bft)
13.06.2015 16:00 24,9 C 25,8 C 55 % 0 lf 1009,4 hPa 0,0 l/m 1,00 h 0,00 h 705 W/m 29,4 km/h (5 Bft)
13.06.2015 17:00 24,7 C 22,5 C 52 % 0 lf 1009,2 hPa 0,0 l/m 0,97 h 0,00 h 568 W/m 34,6 km/h (5 Bft)
13.06.2015 18:00 23,3 C 21,1 C 54 % 0 lf 1009,0 hPa 0,0 l/m 0,98 h 0,00 h 429 W/m 31,2 km/h (5 Bft)
13.06.2015 19:00 22,4 C 20,3 C 54 % 0 lf 1009,1 hPa 0,0 l/m 1,00 h 0,00 h 261 W/m 26,4 km/h (4 Bft)
13.06.2015 20:00 21,7 C 19,4 C 54 % 0 lf 1009,3 hPa 0,0 l/m 0,57 h 0,00 h 94 W/m 17,5 km/h (3 Bft)
13.06.2015 21:00 20,5 C 17,5 C 57 % 0 lf 1009,5 hPa 0,0 l/m 0,00 h 0,00 h 17 W/m 9,7 km/h (2 Bft)
13.06.2015 22:00 18,9 C 15,5 C 61 % 0 lf 1010,2 hPa 0,0 l/m 0,00 h 0,00 h 0 W/m 7,2 km/h (2 Bft)
13.06.2015 23:00 17,3 C 14,4 C 66 % 0 lf 1010,7 hPa 0,0 l/m 0,00 h 0,00 h 0 W/m 8,0 km/h (2 Bft)
14.06.2015 00:00 16,0 C 13,3 C 70 % 0 lf 1011,0 hPa 0,0 l/m 0,00 h 0,00 h 0 W/m 6,9 km/h (2 Bft)
14.06.2015 01:00 14,8 C 12,4 C 74 % 0 lf 1010,9 hPa 0,0 l/m 0,00 h 0,00 h 0 W/m 6,4 km/h (2 Bft)
14.06.2015 02:00 13,7 C 11,2 C 78 % 0 lf 1010,9 hPa 0,0 l/m 0,00 h 0,00 h 0 W/m 3,8 km/h (1 Bft)
14.06.2015 03:00 12,6 C 10,8 C 83 % 1 lf 1010,8 hPa 0,0 l/m 0,00 h 0,00 h 0 W/m 7,6 km/h (2 Bft)
14.06.2015 04:00 12,0 C 10,1 C 85 % 1 lf 1010,7 hPa 0,0 l/m 0,00 h 0,00 h 0 W/m 4,3 km/h (1 Bft)
14.06.2015 05:00 11,6 C 10,6 C 87 % 1 lf 1010,8 hPa 0,0 l/m 0,00 h 0,00 h 11 W/m 7,1 km/h (2 Bft)
14.06.2015 06:00 11,6 C 10,8 C 88 % 1 lf 1010,8 hPa 0,0 l/m 0,70 h 0,00 h 105 W/m 8,1 km/h (2 Bft)
14.06.2015 07:00 12,4 C 12,3 C 89 % 0 lf 1010,9 hPa 0,0 l/m 0,80 h 0,00 h 186 W/m 7,1 km/h (2 Bft)
14.06.2015 08:00 14,2 C 14,3 C 85 % 0 lf 1011,4 hPa 0,0 l/m 0,27 h 0,00 h 204 W/m 7,1 km/h (2 Bft)
14.06.2015 09:00 16,8 C 16,5 C 79 % 0 lf 1011,4 hPa 0,0 l/m 0,90 h 0,00 h 471 W/m 8,0 km/h (2 Bft)
14.06.2015 10:00 20,4 C 22,6 C 69 % 0 lf 1011,2 hPa 0,0 l/m 1,00 h 0,00 h 725 W/m 10,1 km/h (2 Bft)
14.06.2015 11:00 22,8 C 25,9 C 62 % 0 lf 1011,1 hPa 0,0 l/m 0,87 h 0,00 h 793 W/m 8,5 km/h (2 Bft)
14.06.2015 12:00 23,0 C 23,6 C 59 % 0 lf 1011,0 hPa 0,0 l/m 0,53 h 0,00 h 580 W/m 8,7 km/h (2 Bft)
14.06.2015 13:00 24,2 C 24,2 C 55 % 0 lf 1010,6 hPa 0,0 l/m 0,70 h 0,00 h 793 W/m 10,3 km/h (2 Bft)
14.06.2015 14:00 24,4 C 23,5 C 54 % 0 lf 1010,4 hPa 0,0 l/m 0,70 h 0,00 h 682 W/m 10,3 km/h (2 Bft)
14.06.2015 15:00 24,9 C 23,3 C 51 % 0 lf 1010,0 hPa 0,0 l/m 0,40 h 0,00 h 486 W/m 12,6 km/h (3 Bft)
14.06.2015 16:00 24,4 C 24,3 C 53 % 0 lf 1009,9 hPa 0,0 l/m 0,47 h 0,00 h 444 W/m 13,1 km/h (3 Bft)
14.06.2015 17:00 23,6 C 22,6 C 57 % 0 lf 1009,7 hPa 0,0 l/m 0,53 h 0,00 h 382 W/m 13,6 km/h (3 Bft)
14.06.2015 18:00 23,3 C 22,0 C 57 % 0 lf 1009,7 hPa 0,0 l/m 0,62 h 0,00 h 252 W/m 13,1 km/h (3 Bft)
14.06.2015 19:00 22,2 C 20,9 C 63 % 0 lf 1009,7 hPa 0,0 l/m 0,23 h 0,00 h 130 W/m 13,7 km/h (3 Bft)
14.06.2015 20:00 21,3 C 19,5 C 65 % 0 lf 1010,2 hPa 0,0 l/m 0,00 h 0,00 h 46 W/m 11,5 km/h (2 Bft)
14.06.2015 21:00 20,1 C 18,3 C 69 % 0 lf 1010,7 hPa 0,0 l/m 0,00 h 0,00 h 9 W/m 18,3 km/h (3 Bft)
14.06.2015 22:00 18,5 C 16,7 C 76 % 0 lf 1011,7 hPa 0,0 l/m 0,00 h 0,00 h 0 W/m 16,0 km/h (3 Bft)
14.06.2015 23:00 17,4 C 16,0 C 80 % 0 lf 1012,2 hPa 0,0 l/m 0,00 h 0,00 h 0 W/m 13,8 km/h (3 Bft)
Min-Datum _ 09.06.15 09.06.15 11.06.15 08.06.15 13.06.15 - - - - 12.06.15
_ Min-Zeit 05:36 05:34 14:54 00:00 01:54 - - - - 05:14
Minimum _ 7,9 C 6,7 C 39 % 0 lf 1007,1 hPa - - - - 0,0 km/h (0 Bft)
Max-Datum _ 12.06.15 12.06.15 13.06.15 12.06.15 08.06.15 13.06.15 08.06.15 12.06.15 13.06.15 08.06.15
_ Max-Zeit 17:34 13:14 05:40 18:47 01:36 09:16 05:44 21:20 13:00 18:42
Maximum _ 32,2 C 32,8 C 94 % 15 lf 1029,8 hPa 0,6 l/m 0,03 h 0,03 h 1192 W/m 46,0 km/h
N-NO (6 Bft)
Durchschnitt _ 18,1 C 16,9 C 66 % 0 lf 1018,7 hPa #1,6 l/m #77:21 h #3:07 h 413 W/m 16,5 km/h (3 Bft)
© 2015 W. Hausmann